sensor_id;sensor_type;location;lat;lon;timestamp;temperature;humidity
4293;DHT22;2160;51.172;6.808;2022-12-20T05:03:12;12.30;99.90
4293;DHT22;2160;51.172;6.808;2022-12-20T05:05:39;12.30;99.90
4293;DHT22;2160;51.172;6.808;2022-12-20T05:08:06;12.30;99.90
4293;DHT22;2160;51.172;6.808;2022-12-20T05:10:34;12.40;99.90
4293;DHT22;2160;51.172;6.808;2022-12-20T05:13:02;12.30;99.90
4293;DHT22;2160;51.172;6.808;2022-12-20T05:15:35;12.30;99.90
4293;DHT22;2160;51.172;6.808;2022-12-20T05:18:02;12.10;99.90
4293;DHT22;2160;51.172;6.808;2022-12-20T05:20:58;12.10;99.90
4293;DHT22;2160;51.172;6.808;2022-12-20T05:23:44;12.10;99.90
4293;DHT22;2160;51.172;6.808;2022-12-20T05:26:33;12.20;99.90
4293;DHT22;2160;51.172;6.808;2022-12-20T05:29:00;12.20;99.90
4293;DHT22;2160;51.172;6.808;2022-12-20T05:31:27;12.10;99.90
4293;DHT22;2160;51.172;6.808;2022-12-20T05:33:54;12.20;99.90
4293;DHT22;2160;51.172;6.808;2022-12-20T05:36:26;12.20;99.90
4293;DHT22;2160;51.172;6.808;2022-12-20T05:38:55;12.20;99.90
4293;DHT22;2160;51.172;6.808;2022-12-20T05:41:22;12.00;99.90
4293;DHT22;2160;51.172;6.808;2022-12-20T05:43:51;11.90;99.90
4293;DHT22;2160;51.172;6.808;2022-12-20T05:46:18;11.90;99.90
4293;DHT22;2160;51.172;6.808;2022-12-20T05:48:59;12.00;99.90
4293;DHT22;2160;51.172;6.808;2022-12-20T05:51:28;12.10;99.90
4293;DHT22;2160;51.172;6.808;2022-12-20T05:54:01;12.00;99.90
4293;DHT22;2160;51.172;6.808;2022-12-20T05:56:46;12.10;99.90
4293;DHT22;2160;51.172;6.808;2022-12-20T05:59:17;12.10;99.90
4293;DHT22;2160;51.172;6.808;2022-12-20T06:01:45;12.10;99.90
4293;DHT22;2160;51.172;6.808;2022-12-20T06:04:13;12.30;99.90
4293;DHT22;2160;51.172;6.808;2022-12-20T06:06:42;12.30;99.90
4293;DHT22;2160;51.172;6.808;2022-12-20T06:09:09;12.30;99.90
4293;DHT22;2160;51.172;6.808;2022-12-20T06:11:40;12.30;99.90
4293;DHT22;2160;51.172;6.808;2022-12-20T06:14:10;12.20;99.90
4293;DHT22;2160;51.172;6.808;2022-12-20T06:16:42;12.30;99.90
4293;DHT22;2160;51.172;6.808;2022-12-20T06:19:10;12.50;99.90
4293;DHT22;2160;51.172;6.808;2022-12-20T06:21:37;12.30;99.90
4293;DHT22;2160;51.172;6.808;2022-12-20T06:24:06;12.00;99.90
4293;DHT22;2160;51.172;6.808;2022-12-20T06:26:36;11.90;99.90
4293;DHT22;2160;51.172;6.808;2022-12-20T06:29:05;12.20;99.90
4293;DHT22;2160;51.172;6.808;2022-12-20T06:31:42;12.20;99.90
4293;DHT22;2160;51.172;6.808;2022-12-20T06:34:09;12.10;99.90
4293;DHT22;2160;51.172;6.808;2022-12-20T06:36:39;12.10;99.90
4293;DHT22;2160;51.172;6.808;2022-12-20T06:39:10;12.20;99.90
4293;DHT22;2160;51.172;6.808;2022-12-20T06:41:46;12.40;99.90
4293;DHT22;2160;51.172;6.808;2022-12-20T06:44:13;12.40;99.90
4293;DHT22;2160;51.172;6.808;2022-12-20T06:46:40;12.20;99.90
4293;DHT22;2160;51.172;6.808;2022-12-20T06:49:07;12.00;99.90
4293;DHT22;2160;51.172;6.808;2022-12-20T06:51:34;12.20;99.90
4293;DHT22;2160;51.172;6.808;2022-12-20T06:54:01;12.40;99.90
4293;DHT22;2160;51.172;6.808;2022-12-20T06:56:32;12.10;99.90
4293;DHT22;2160;51.172;6.808;2022-12-20T06:58:59;12.20;99.90
4293;DHT22;2160;51.172;6.808;2022-12-20T07:01:26;12.20;99.90
4293;DHT22;2160;51.172;6.808;2022-12-20T07:03:53;12.10;99.90
4293;DHT22;2160;51.172;6.808;2022-12-20T07:06:20;12.00;99.90
4293;DHT22;2160;51.172;6.808;2022-12-20T07:08:47;12.00;99.90
4293;DHT22;2160;51.172;6.808;2022-12-20T07:11:14;12.10;99.90
4293;DHT22;2160;51.172;6.808;2022-12-20T07:13:43;12.10;99.90
4293;DHT22;2160;51.172;6.808;2022-12-20T07:16:10;12.10;99.90
4293;DHT22;2160;51.172;6.808;2022-12-20T07:18:37;12.10;99.90
4293;DHT22;2160;51.172;6.808;2022-12-20T07:21:04;12.00;99.90
4293;DHT22;2160;51.172;6.808;2022-12-20T07:23:32;12.00;99.90
4293;DHT22;2160;51.172;6.808;2022-12-20T07:26:00;12.10;99.90
4293;DHT22;2160;51.172;6.808;2022-12-20T07:28:28;11.70;99.90
4293;DHT22;2160;51.172;6.808;2022-12-20T07:30:59;12.00;99.90
4293;DHT22;2160;51.172;6.808;2022-12-20T07:33:26;12.10;99.90
4293;DHT22;2160;51.172;6.808;2022-12-20T07:35:59;12.20;99.90
4293;DHT22;2160;51.172;6.808;2022-12-20T07:38:26;12.20;99.90
4293;DHT22;2160;51.172;6.808;2022-12-20T07:40:54;12.30;99.90
4293;DHT22;2160;51.172;6.808;2022-12-20T07:43:22;12.40;99.90
4293;DHT22;2160;51.172;6.808;2022-12-20T07:45:53;12.20;99.90
4293;DHT22;2160;51.172;6.808;2022-12-20T07:48:22;12.20;99.90
4293;DHT22;2160;51.172;6.808;2022-12-20T07:50:50;12.20;99.90
4293;DHT22;2160;51.172;6.808;2022-12-20T07:53:18;12.00;99.90
4293;DHT22;2160;51.172;6.808;2022-12-20T07:55:46;12.00;99.90
4293;DHT22;2160;51.172;6.808;2022-12-20T07:58:15;12.00;99.90
4293;DHT22;2160;51.172;6.808;2022-12-20T08:00:44;11.90;99.90
4293;DHT22;2160;51.172;6.808;2022-12-20T08:03:13;12.00;99.90
4293;DHT22;2160;51.172;6.808;2022-12-20T08:05:46;11.90;99.90
4293;DHT22;2160;51.172;6.808;2022-12-20T08:08:15;11.90;99.90
4293;DHT22;2160;51.172;6.808;2022-12-20T08:10:43;12.10;99.90
4293;DHT22;2160;51.172;6.808;2022-12-20T08:13:11;12.00;99.90
4293;DHT22;2160;51.172;6.808;2022-12-20T08:15:38;12.10;99.90
4293;DHT22;2160;51.172;6.808;2022-12-20T08:18:05;12.20;99.90
4293;DHT22;2160;51.172;6.808;2022-12-20T08:20:35;12.20;99.90
4293;DHT22;2160;51.172;6.808;2022-12-20T08:23:03;12.20;99.90
4293;DHT22;2160;51.172;6.808;2022-12-20T08:25:30;12.00;99.90
4293;DHT22;2160;51.172;6.808;2022-12-20T08:27:59;12.10;99.90
4293;DHT22;2160;51.172;6.808;2022-12-20T08:30:27;12.30;99.90
4293;DHT22;2160;51.172;6.808;2022-12-20T08:32:54;12.10;99.90
4293;DHT22;2160;51.172;6.808;2022-12-20T08:35:21;12.20;99.90
4293;DHT22;2160;51.172;6.808;2022-12-20T08:37:50;12.30;99.90
4293;DHT22;2160;51.172;6.808;2022-12-20T08:40:18;12.30;99.90
4293;DHT22;2160;51.172;6.808;2022-12-20T08:42:46;12.40;99.90
4293;DHT22;2160;51.172;6.808;2022-12-20T08:45:12;12.30;99.90
4293;DHT22;2160;51.172;6.808;2022-12-20T08:47:40;12.30;99.90
4293;DHT22;2160;51.172;6.808;2022-12-20T08:50:08;12.20;99.90
4293;DHT22;2160;51.172;6.808;2022-12-20T08:52:34;12.40;99.90
4293;DHT22;2160;51.172;6.808;2022-12-20T08:55:01;12.30;99.90
4293;DHT22;2160;51.172;6.808;2022-12-20T08:57:31;12.40;99.90
4293;DHT22;2160;51.172;6.808;2022-12-20T08:59:58;12.40;99.90
4293;DHT22;2160;51.172;6.808;2022-12-20T09:02:25;12.30;99.90
4293;DHT22;2160;51.172;6.808;2022-12-20T09:04:52;12.20;99.90
4293;DHT22;2160;51.172;6.808;2022-12-20T09:07:19;12.20;99.90
4293;DHT22;2160;51.172;6.808;2022-12-20T09:09:46;12.30;99.90
4293;DHT22;2160;51.172;6.808;2022-12-20T09:12:13;12.30;99.90
4293;DHT22;2160;51.172;6.808;2022-12-20T09:14:41;12.40;99.90
4293;DHT22;2160;51.172;6.808;2022-12-20T09:17:08;12.30;99.90
4293;DHT22;2160;51.172;6.808;2022-12-20T09:19:35;12.40;99.90
4293;DHT22;2160;51.172;6.808;2022-12-20T09:22:02;12.40;99.90
4293;DHT22;2160;51.172;6.808;2022-12-20T09:24:29;12.30;99.90
4293;DHT22;2160;51.172;6.808;2022-12-20T09:26:56;12.40;99.90
4293;DHT22;2160;51.172;6.808;2022-12-20T09:29:23;12.40;99.90
4293;DHT22;2160;51.172;6.808;2022-12-20T09:31:51;12.30;99.90
4293;DHT22;2160;51.172;6.808;2022-12-20T09:34:18;12.30;99.90
4293;DHT22;2160;51.172;6.808;2022-12-20T09:36:44;12.30;99.90
4293;DHT22;2160;51.172;6.808;2022-12-20T09:39:11;12.30;99.90
4293;DHT22;2160;51.172;6.808;2022-12-20T09:41:39;12.40;99.90
4293;DHT22;2160;51.172;6.808;2022-12-20T09:44:12;12.50;99.90
4293;DHT22;2160;51.172;6.808;2022-12-20T09:46:41;12.50;99.90
4293;DHT22;2160;51.172;6.808;2022-12-20T09:49:16;12.50;99.90
4293;DHT22;2160;51.172;6.808;2022-12-20T09:52:05;12.60;99.90
4293;DHT22;2160;51.172;6.808;2022-12-20T09:54:43;12.70;99.90
4293;DHT22;2160;51.172;6.808;2022-12-20T09:57:17;12.70;99.90
4293;DHT22;2160;51.172;6.808;2022-12-20T09:59:49;12.90;99.90
4293;DHT22;2160;51.172;6.808;2022-12-20T10:02:19;12.90;99.90
4293;DHT22;2160;51.172;6.808;2022-12-20T10:04:49;12.80;99.90
4293;DHT22;2160;51.172;6.808;2022-12-20T10:07:25;12.80;99.90
4293;DHT22;2160;51.172;6.808;2022-12-20T10:10:31;12.80;99.90
4293;DHT22;2160;51.172;6.808;2022-12-20T10:13:12;12.80;99.90
4293;DHT22;2160;51.172;6.808;2022-12-20T10:15:50;12.90;99.90
4293;DHT22;2160;51.172;6.808;2022-12-20T10:18:33;12.70;99.90
4293;DHT22;2160;51.172;6.808;2022-12-20T10:21:10;12.80;99.90
4293;DHT22;2160;51.172;6.808;2022-12-20T10:23:44;12.80;99.90
4293;DHT22;2160;51.172;6.808;2022-12-20T10:26:12;12.90;99.90
4293;DHT22;2160;51.172;6.808;2022-12-20T10:28:39;12.90;99.90
4293;DHT22;2160;51.172;6.808;2022-12-20T10:31:11;12.90;99.90
4293;DHT22;2160;51.172;6.808;2022-12-20T10:33:38;12.80;99.90
4293;DHT22;2160;51.172;6.808;2022-12-20T10:36:22;12.80;99.90
4293;DHT22;2160;51.172;6.808;2022-12-20T10:38:52;12.80;99.90
4293;DHT22;2160;51.172;6.808;2022-12-20T10:41:20;12.80;99.90
4293;DHT22;2160;51.172;6.808;2022-12-20T10:43:51;12.70;99.90
4293;DHT22;2160;51.172;6.808;2022-12-20T10:46:21;12.60;99.90
4293;DHT22;2160;51.172;6.808;2022-12-20T10:48:48;12.80;99.90
4293;DHT22;2160;51.172;6.808;2022-12-20T10:51:17;12.80;99.90
4293;DHT22;2160;51.172;6.808;2022-12-20T10:53:57;12.80;99.90
4293;DHT22;2160;51.172;6.808;2022-12-20T10:56:27;12.90;99.90
4293;DHT22;2160;51.172;6.808;2022-12-20T10:58:56;12.90;99.90
4293;DHT22;2160;51.172;6.808;2022-12-20T11:01:26;13.10;99.90
4293;DHT22;2160;51.172;6.808;2022-12-20T11:04:00;13.10;99.90
4293;DHT22;2160;51.172;6.808;2022-12-20T11:06:39;13.00;99.90
4293;DHT22;2160;51.172;6.808;2022-12-20T11:09:24;13.00;99.90
4293;DHT22;2160;51.172;6.808;2022-12-20T11:11:59;13.10;99.90
4293;DHT22;2160;51.172;6.808;2022-12-20T11:14:27;13.10;99.90
4293;DHT22;2160;51.172;6.808;2022-12-20T11:16:55;13.10;99.90
4293;DHT22;2160;51.172;6.808;2022-12-20T11:19:33;13.30;99.90
4293;DHT22;2160;51.172;6.808;2022-12-20T11:22:14;13.40;99.90
4293;DHT22;2160;51.172;6.808;2022-12-20T11:24:51;13.40;99.90
4293;DHT22;2160;51.172;6.808;2022-12-20T11:27:30;13.40;99.90
4293;DHT22;2160;51.172;6.808;2022-12-20T11:30:07;13.30;99.90
4293;DHT22;2160;51.172;6.808;2022-12-20T11:32:49;13.20;99.90
4293;DHT22;2160;51.172;6.808;2022-12-20T11:35:24;13.20;99.90
4293;DHT22;2160;51.172;6.808;2022-12-20T11:38:00;13.20;99.90
4293;DHT22;2160;51.172;6.808;2022-12-20T11:40:34;13.30;99.90
4293;DHT22;2160;51.172;6.808;2022-12-20T11:43:19;13.50;99.90
4293;DHT22;2160;51.172;6.808;2022-12-20T11:46:03;13.50;99.90
4293;DHT22;2160;51.172;6.808;2022-12-20T11:49:01;13.50;99.90
4293;DHT22;2160;51.172;6.808;2022-12-20T11:51:39;13.50;99.90
4293;DHT22;2160;51.172;6.808;2022-12-20T11:54:12;13.40;99.90
4293;DHT22;2160;51.172;6.808;2022-12-20T11:56:43;13.40;99.90
4293;DHT22;2160;51.172;6.808;2022-12-20T11:59:18;13.60;99.90
4293;DHT22;2160;51.172;6.808;2022-12-20T12:01:52;13.70;99.90
4293;DHT22;2160;51.172;6.808;2022-12-20T12:04:25;13.70;99.90
4293;DHT22;2160;51.172;6.808;2022-12-20T12:06:56;13.60;99.90
4293;DHT22;2160;51.172;6.808;2022-12-20T12:09:28;13.50;99.90
4293;DHT22;2160;51.172;6.808;2022-12-20T12:12:02;13.60;99.90
4293;DHT22;2160;51.172;6.808;2022-12-20T12:14:44;13.70;99.90
4293;DHT22;2160;51.172;6.808;2022-12-20T12:17:22;13.70;99.90
4293;DHT22;2160;51.172;6.808;2022-12-20T12:19:52;13.60;99.90
4293;DHT22;2160;51.172;6.808;2022-12-20T12:22:23;13.70;99.90
4293;DHT22;2160;51.172;6.808;2022-12-20T12:24:57;13.80;99.90
4293;DHT22;2160;51.172;6.808;2022-12-20T12:27:27;14.00;99.90
4293;DHT22;2160;51.172;6.808;2022-12-20T12:29:55;14.10;99.90
4293;DHT22;2160;51.172;6.808;2022-12-20T12:32:27;14.00;99.90
4293;DHT22;2160;51.172;6.808;2022-12-20T12:35:20;14.10;99.90
4293;DHT22;2160;51.172;6.808;2022-12-20T12:37:58;14.10;99.90
4293;DHT22;2160;51.172;6.808;2022-12-20T12:40:49;14.10;99.90
4293;DHT22;2160;51.172;6.808;2022-12-20T12:43:42;13.90;99.90
4293;DHT22;2160;51.172;6.808;2022-12-20T12:46:12;13.80;99.90
4293;DHT22;2160;51.172;6.808;2022-12-20T12:48:43;13.90;99.90
4293;DHT22;2160;51.172;6.808;2022-12-20T12:51:13;14.10;99.90
4293;DHT22;2160;51.172;6.808;2022-12-20T12:53:42;14.00;99.90
4293;DHT22;2160;51.172;6.808;2022-12-20T12:56:30;14.10;99.90
4293;DHT22;2160;51.172;6.808;2022-12-20T13:02:35;14.60;99.90
4293;DHT22;2160;51.172;6.808;2022-12-20T13:05:33;14.60;99.90
4293;DHT22;2160;51.172;6.808;2022-12-20T13:08:00;14.50;99.90
4293;DHT22;2160;51.172;6.808;2022-12-20T13:13:34;14.50;99.90
4293;DHT22;2160;51.172;6.808;2022-12-20T13:16:29;14.40;99.90
4293;DHT22;2160;51.172;6.808;2022-12-20T13:19:09;14.50;99.90
4293;DHT22;2160;51.172;6.808;2022-12-20T13:21:39;14.50;99.90
4293;DHT22;2160;51.172;6.808;2022-12-20T13:24:51;14.60;99.90
4293;DHT22;2160;51.172;6.808;2022-12-20T13:27:29;14.60;99.90
4293;DHT22;2160;51.172;6.808;2022-12-20T13:30:25;14.70;99.90
4293;DHT22;2160;51.172;6.808;2022-12-20T13:35:59;14.40;99.90
4293;DHT22;2160;51.172;6.808;2022-12-20T13:38:50;14.60;99.90
4293;DHT22;2160;51.172;6.808;2022-12-20T13:41:40;14.30;99.90
4293;DHT22;2160;51.172;6.808;2022-12-20T13:44:32;14.30;99.90
4293;DHT22;2160;51.172;6.808;2022-12-20T13:47:05;14.20;99.90
4293;DHT22;2160;51.172;6.808;2022-12-20T13:49:36;14.30;99.90
4293;DHT22;2160;51.172;6.808;2022-12-20T13:52:16;14.40;99.90
4293;DHT22;2160;51.172;6.808;2022-12-20T13:54:47;14.40;99.90
4293;DHT22;2160;51.172;6.808;2022-12-20T13:57:17;14.40;99.90
4293;DHT22;2160;51.172;6.808;2022-12-20T13:59:46;14.30;99.90
4293;DHT22;2160;51.172;6.808;2022-12-20T14:02:19;14.30;99.90
4293;DHT22;2160;51.172;6.808;2022-12-20T14:04:53;14.30;99.90
4293;DHT22;2160;51.172;6.808;2022-12-20T14:07:23;14.30;99.90
4293;DHT22;2160;51.172;6.808;2022-12-20T14:09:55;14.30;99.90
4293;DHT22;2160;51.172;6.808;2022-12-20T14:12:22;14.40;99.90
4293;DHT22;2160;51.172;6.808;2022-12-20T14:14:50;14.20;99.90
4293;DHT22;2160;51.172;6.808;2022-12-20T14:17:22;14.20;99.90
4293;DHT22;2160;51.172;6.808;2022-12-20T14:20:04;14.20;99.90
4293;DHT22;2160;51.172;6.808;2022-12-20T14:22:34;14.20;99.90
4293;DHT22;2160;51.172;6.808;2022-12-20T14:25:01;14.00;99.90
4293;DHT22;2160;51.172;6.808;2022-12-20T14:27:33;13.90;99.90
4293;DHT22;2160;51.172;6.808;2022-12-20T14:30:03;14.00;99.90
4293;DHT22;2160;51.172;6.808;2022-12-20T14:32:31;13.90;99.90
4293;DHT22;2160;51.172;6.808;2022-12-20T14:34:58;13.90;99.90
4293;DHT22;2160;51.172;6.808;2022-12-20T14:37:31;14.10;99.90
4293;DHT22;2160;51.172;6.808;2022-12-20T14:40:13;13.90;99.90
4293;DHT22;2160;51.172;6.808;2022-12-20T14:42:40;13.90;99.90
4293;DHT22;2160;51.172;6.808;2022-12-20T14:45:17;14.10;99.90
4293;DHT22;2160;51.172;6.808;2022-12-20T14:47:49;13.90;99.90
4293;DHT22;2160;51.172;6.808;2022-12-20T14:50:18;14.00;99.90
4293;DHT22;2160;51.172;6.808;2022-12-20T14:52:46;13.90;99.90
4293;DHT22;2160;51.172;6.808;2022-12-20T14:55:16;13.90;99.90
4293;DHT22;2160;51.172;6.808;2022-12-20T14:57:46;13.90;99.90
4293;DHT22;2160;51.172;6.808;2022-12-20T15:00:20;13.90;99.90
4293;DHT22;2160;51.172;6.808;2022-12-20T15:02:51;13.90;99.90
4293;DHT22;2160;51.172;6.808;2022-12-20T15:05:50;13.90;99.90
4293;DHT22;2160;51.172;6.808;2022-12-20T15:08:20;14.00;99.90
4293;DHT22;2160;51.172;6.808;2022-12-20T15:10:55;13.90;99.90
4293;DHT22;2160;51.172;6.808;2022-12-20T15:13:34;14.00;99.90
4293;DHT22;2160;51.172;6.808;2022-12-20T15:16:03;13.90;99.90
4293;DHT22;2160;51.172;6.808;2022-12-20T15:18:30;13.90;99.90
4293;DHT22;2160;51.172;6.808;2022-12-20T15:21:01;13.90;99.90
4293;DHT22;2160;51.172;6.808;2022-12-20T15:23:29;13.80;99.90
4293;DHT22;2160;51.172;6.808;2022-12-20T15:25:58;13.80;99.90
4293;DHT22;2160;51.172;6.808;2022-12-20T15:28:26;13.80;99.90
4293;DHT22;2160;51.172;6.808;2022-12-20T15:30:53;13.80;99.90
4293;DHT22;2160;51.172;6.808;2022-12-20T15:33:23;13.80;99.90
4293;DHT22;2160;51.172;6.808;2022-12-20T15:35:50;13.90;99.90
4293;DHT22;2160;51.172;6.808;2022-12-20T15:38:19;13.90;99.90
4293;DHT22;2160;51.172;6.808;2022-12-20T15:40:48;13.80;99.90
4293;DHT22;2160;51.172;6.808;2022-12-20T15:43:18;13.70;99.90
4293;DHT22;2160;51.172;6.808;2022-12-20T15:45:47;13.50;99.90
4293;DHT22;2160;51.172;6.808;2022-12-20T15:48:17;13.70;99.90
4293;DHT22;2160;51.172;6.808;2022-12-20T15:50:49;13.50;99.90
4293;DHT22;2160;51.172;6.808;2022-12-20T15:53:19;13.60;99.90
4293;DHT22;2160;51.172;6.808;2022-12-20T15:55:52;13.50;99.90
4293;DHT22;2160;51.172;6.808;2022-12-20T15:58:21;13.50;99.90
4293;DHT22;2160;51.172;6.808;2022-12-20T16:00:48;13.50;99.90
4293;DHT22;2160;51.172;6.808;2022-12-20T16:03:17;13.50;99.90
4293;DHT22;2160;51.172;6.808;2022-12-20T16:05:45;13.50;99.90
4293;DHT22;2160;51.172;6.808;2022-12-20T16:08:12;13.40;99.90
4293;DHT22;2160;51.172;6.808;2022-12-20T16:10:39;13.40;99.90
4293;DHT22;2160;51.172;6.808;2022-12-20T16:13:13;13.40;99.90
4293;DHT22;2160;51.172;6.808;2022-12-20T16:15:42;13.40;99.90
4293;DHT22;2160;51.172;6.808;2022-12-20T16:18:09;13.40;99.90
4293;DHT22;2160;51.172;6.808;2022-12-20T16:20:36;13.20;99.90
4293;DHT22;2160;51.172;6.808;2022-12-20T16:23:04;13.20;99.90
4293;DHT22;2160;51.172;6.808;2022-12-20T16:25:33;13.20;99.90
4293;DHT22;2160;51.172;6.808;2022-12-20T16:28:01;13.30;99.90
4293;DHT22;2160;51.172;6.808;2022-12-20T16:30:28;13.40;99.90
4293;DHT22;2160;51.172;6.808;2022-12-20T16:32:56;13.40;99.90
4293;DHT22;2160;51.172;6.808;2022-12-20T16:35:29;13.40;99.90
4293;DHT22;2160;51.172;6.808;2022-12-20T16:37:58;13.50;99.90
4293;DHT22;2160;51.172;6.808;2022-12-20T16:40:27;13.40;99.90
4293;DHT22;2160;51.172;6.808;2022-12-20T16:42:55;13.40;99.90
4293;DHT22;2160;51.172;6.808;2022-12-20T16:45:24;13.40;99.90
4293;DHT22;2160;51.172;6.808;2022-12-20T16:47:51;13.50;99.90
4293;DHT22;2160;51.172;6.808;2022-12-20T16:50:21;13.60;99.90
4293;DHT22;2160;51.172;6.808;2022-12-20T16:52:49;13.60;99.90
4293;DHT22;2160;51.172;6.808;2022-12-20T16:55:19;13.60;99.90
4293;DHT22;2160;51.172;6.808;2022-12-20T16:57:46;13.60;99.90
4293;DHT22;2160;51.172;6.808;2022-12-20T17:00:19;13.60;99.90
4293;DHT22;2160;51.172;6.808;2022-12-20T17:02:46;13.60;99.90
4293;DHT22;2160;51.172;6.808;2022-12-20T17:05:21;13.80;99.90
4293;DHT22;2160;51.172;6.808;2022-12-20T17:07:49;13.70;99.90
4293;DHT22;2160;51.172;6.808;2022-12-20T17:10:16;13.60;99.90
4293;DHT22;2160;51.172;6.808;2022-12-20T17:12:43;13.50;99.90
4293;DHT22;2160;51.172;6.808;2022-12-20T17:15:19;13.50;99.90
4293;DHT22;2160;51.172;6.808;2022-12-20T17:17:46;13.50;99.90
4293;DHT22;2160;51.172;6.808;2022-12-20T17:20:14;13.50;99.90
4293;DHT22;2160;51.172;6.808;2022-12-20T17:22:43;13.60;99.90
4293;DHT22;2160;51.172;6.808;2022-12-20T17:25:25;13.50;99.90
4293;DHT22;2160;51.172;6.808;2022-12-20T17:27:52;13.50;99.90
4293;DHT22;2160;51.172;6.808;2022-12-20T17:30:21;13.20;99.90
4293;DHT22;2160;51.172;6.808;2022-12-20T17:32:48;13.40;99.90
4293;DHT22;2160;51.172;6.808;2022-12-20T17:35:22;13.20;99.90
4293;DHT22;2160;51.172;6.808;2022-12-20T17:37:51;13.20;99.90
4293;DHT22;2160;51.172;6.808;2022-12-20T17:40:21;13.40;99.90
4293;DHT22;2160;51.172;6.808;2022-12-20T17:42:48;13.50;99.90
4293;DHT22;2160;51.172;6.808;2022-12-20T17:45:21;13.60;99.90
4293;DHT22;2160;51.172;6.808;2022-12-20T17:47:48;13.60;99.90
4293;DHT22;2160;51.172;6.808;2022-12-20T17:50:15;13.50;99.90
4293;DHT22;2160;51.172;6.808;2022-12-20T17:52:43;13.50;99.90
4293;DHT22;2160;51.172;6.808;2022-12-20T17:55:16;13.50;99.90
4293;DHT22;2160;51.172;6.808;2022-12-20T17:57:43;13.50;99.90
4293;DHT22;2160;51.172;6.808;2022-12-20T18:00:16;13.50;99.90
4293;DHT22;2160;51.172;6.808;2022-12-20T18:02:44;13.70;99.90
4293;DHT22;2160;51.172;6.808;2022-12-20T18:05:11;13.70;99.90
4293;DHT22;2160;51.172;6.808;2022-12-20T18:07:38;13.70;99.90
4293;DHT22;2160;51.172;6.808;2022-12-20T18:10:06;13.60;99.90
4293;DHT22;2160;51.172;6.808;2022-12-20T18:12:35;13.60;99.90
4293;DHT22;2160;51.172;6.808;2022-12-20T18:15:02;13.60;99.90
4293;DHT22;2160;51.172;6.808;2022-12-20T18:17:32;13.70;99.90
4293;DHT22;2160;51.172;6.808;2022-12-20T18:19:59;13.90;99.90
4293;DHT22;2160;51.172;6.808;2022-12-20T18:22:26;13.90;99.90
4293;DHT22;2160;51.172;6.808;2022-12-20T18:24:53;13.90;99.90
4293;DHT22;2160;51.172;6.808;2022-12-20T18:27:19;14.00;99.90
4293;DHT22;2160;51.172;6.808;2022-12-20T18:29:48;14.00;99.90
4293;DHT22;2160;51.172;6.808;2022-12-20T18:32:15;14.10;99.90
4293;DHT22;2160;51.172;6.808;2022-12-20T18:34:41;14.10;99.90
4293;DHT22;2160;51.172;6.808;2022-12-20T18:37:09;14.10;99.90
4293;DHT22;2160;51.172;6.808;2022-12-20T18:39:36;14.20;99.90
4293;DHT22;2160;51.172;6.808;2022-12-20T18:42:03;14.10;99.90
4293;DHT22;2160;51.172;6.808;2022-12-20T18:44:30;14.00;99.90
4293;DHT22;2160;51.172;6.808;2022-12-20T18:47:01;14.00;99.90
4293;DHT22;2160;51.172;6.808;2022-12-20T18:49:28;14.00;99.90
4293;DHT22;2160;51.172;6.808;2022-12-20T18:51:57;14.00;99.90
4293;DHT22;2160;51.172;6.808;2022-12-20T18:54:25;13.90;99.90
4293;DHT22;2160;51.172;6.808;2022-12-20T18:56:52;13.80;99.90
4293;DHT22;2160;51.172;6.808;2022-12-20T18:59:19;13.70;99.90
4293;DHT22;2160;51.172;6.808;2022-12-20T19:01:46;13.80;99.90
4293;DHT22;2160;51.172;6.808;2022-12-20T19:04:15;13.80;99.90
4293;DHT22;2160;51.172;6.808;2022-12-20T19:06:42;13.80;99.90
4293;DHT22;2160;51.172;6.808;2022-12-20T19:09:11;13.90;99.90
4293;DHT22;2160;51.172;6.808;2022-12-20T19:11:39;13.90;99.90
4293;DHT22;2160;51.172;6.808;2022-12-20T19:14:06;13.90;99.90
4293;DHT22;2160;51.172;6.808;2022-12-20T19:16:33;13.90;99.90
4293;DHT22;2160;51.172;6.808;2022-12-20T19:19:02;13.90;99.90
4293;DHT22;2160;51.172;6.808;2022-12-20T19:21:32;14.00;99.90
4293;DHT22;2160;51.172;6.808;2022-12-20T19:24:01;13.90;99.90
4293;DHT22;2160;51.172;6.808;2022-12-20T19:26:30;13.90;99.90
4293;DHT22;2160;51.172;6.808;2022-12-20T19:28:57;13.90;99.90
4293;DHT22;2160;51.172;6.808;2022-12-20T19:31:26;13.90;99.90
4293;DHT22;2160;51.172;6.808;2022-12-20T19:33:55;13.90;99.90
4293;DHT22;2160;51.172;6.808;2022-12-20T19:36:23;13.90;99.90
4293;DHT22;2160;51.172;6.808;2022-12-20T19:38:53;13.90;99.90
4293;DHT22;2160;51.172;6.808;2022-12-20T19:41:21;13.90;99.90
4293;DHT22;2160;51.172;6.808;2022-12-20T19:43:49;14.00;99.90
4293;DHT22;2160;51.172;6.808;2022-12-20T19:46:17;13.90;99.90
4293;DHT22;2160;51.172;6.808;2022-12-20T19:48:47;13.90;99.90
4293;DHT22;2160;51.172;6.808;2022-12-20T19:51:16;14.00;99.90
4293;DHT22;2160;51.172;6.808;2022-12-20T19:53:44;13.90;99.90
4293;DHT22;2160;51.172;6.808;2022-12-20T19:56:15;13.90;99.90
4293;DHT22;2160;51.172;6.808;2022-12-20T19:58:43;13.80;99.90
4293;DHT22;2160;51.172;6.808;2022-12-20T20:01:11;13.70;99.90
4293;DHT22;2160;51.172;6.808;2022-12-20T20:03:38;13.70;99.90
4293;DHT22;2160;51.172;6.808;2022-12-20T20:06:06;13.60;99.90
4293;DHT22;2160;51.172;6.808;2022-12-20T20:08:34;13.60;99.90
4293;DHT22;2160;51.172;6.808;2022-12-20T20:11:02;13.50;99.90
4293;DHT22;2160;51.172;6.808;2022-12-20T20:13:31;13.40;99.90
4293;DHT22;2160;51.172;6.808;2022-12-20T20:16:00;13.40;99.90
4293;DHT22;2160;51.172;6.808;2022-12-20T20:18:27;13.40;99.90
4293;DHT22;2160;51.172;6.808;2022-12-20T20:20:56;13.30;99.90
4293;DHT22;2160;51.172;6.808;2022-12-20T20:23:23;13.40;99.90
4293;DHT22;2160;51.172;6.808;2022-12-20T20:25:52;13.40;99.90
4293;DHT22;2160;51.172;6.808;2022-12-20T20:28:21;13.50;99.90
4293;DHT22;2160;51.172;6.808;2022-12-20T20:30:50;13.50;99.90
4293;DHT22;2160;51.172;6.808;2022-12-20T20:33:19;13.40;99.90
4293;DHT22;2160;51.172;6.808;2022-12-20T20:35:53;13.50;99.90
4293;DHT22;2160;51.172;6.808;2022-12-20T20:38:20;13.50;99.90
4293;DHT22;2160;51.172;6.808;2022-12-20T20:40:47;13.50;99.90
4293;DHT22;2160;51.172;6.808;2022-12-20T20:43:14;13.60;99.90
4293;DHT22;2160;51.172;6.808;2022-12-20T20:45:40;13.50;99.90
4293;DHT22;2160;51.172;6.808;2022-12-20T20:48:09;13.70;99.90
4293;DHT22;2160;51.172;6.808;2022-12-20T20:50:36;13.50;99.90
4293;DHT22;2160;51.172;6.808;2022-12-20T20:53:03;13.60;99.90
4293;DHT22;2160;51.172;6.808;2022-12-20T20:55:31;13.70;99.90
4293;DHT22;2160;51.172;6.808;2022-12-20T20:57:58;13.70;99.90
4293;DHT22;2160;51.172;6.808;2022-12-20T21:00:25;13.90;99.90
4293;DHT22;2160;51.172;6.808;2022-12-20T21:02:54;13.70;99.90
4293;DHT22;2160;51.172;6.808;2022-12-20T21:05:22;13.70;99.90
4293;DHT22;2160;51.172;6.808;2022-12-20T21:07:49;13.70;99.90
4293;DHT22;2160;51.172;6.808;2022-12-20T21:10:16;13.70;99.90
4293;DHT22;2160;51.172;6.808;2022-12-20T21:12:43;13.70;99.90
4293;DHT22;2160;51.172;6.808;2022-12-20T21:15:10;13.70;99.90
4293;DHT22;2160;51.172;6.808;2022-12-20T21:17:37;13.70;99.90
4293;DHT22;2160;51.172;6.808;2022-12-20T21:20:05;13.80;99.90
4293;DHT22;2160;51.172;6.808;2022-12-20T21:22:34;13.90;99.90
4293;DHT22;2160;51.172;6.808;2022-12-20T21:25:01;13.80;99.90
4293;DHT22;2160;51.172;6.808;2022-12-20T21:27:28;13.90;99.90
4293;DHT22;2160;51.172;6.808;2022-12-20T21:29:55;13.90;99.90
4293;DHT22;2160;51.172;6.808;2022-12-20T21:32:22;13.90;99.90
4293;DHT22;2160;51.172;6.808;2022-12-20T21:34:49;13.60;99.90
4293;DHT22;2160;51.172;6.808;2022-12-20T21:37:17;13.70;99.90